sensor_id;sensor_type;location;lat;lon;timestamp;P1;durP1;ratioP1;P2;durP2;ratioP2
9661;SDS011;24982;52.344;12.990;2023-04-24T00:00:42;3.85;;;3.60;;
9661;SDS011;24982;52.344;12.990;2023-04-24T00:03:46;4.13;;;3.83;;
9661;SDS011;24982;52.344;12.990;2023-04-24T00:06:48;4.07;;;3.70;;
9661;SDS011;24982;52.344;12.990;2023-04-24T00:09:54;4.30;;;3.90;;
9661;SDS011;24982;52.344;12.990;2023-04-24T00:12:56;3.90;;;3.60;;
9661;SDS011;24982;52.344;12.990;2023-04-24T00:15:58;4.47;;;4.07;;
9661;SDS011;24982;52.344;12.990;2023-04-24T00:19:01;4.10;;;3.90;;
9661;SDS011;24982;52.344;12.990;2023-04-24T00:22:03;4.55;;;4.25;;
9661;SDS011;24982;52.344;12.990;2023-04-24T00:25:05;4.60;;;4.22;;
9661;SDS011;24982;52.344;12.990;2023-04-24T00:28:08;3.92;;;3.72;;
9661;SDS011;24982;52.344;12.990;2023-04-24T00:31:10;4.50;;;4.20;;
9661;SDS011;24982;52.344;12.990;2023-04-24T00:34:13;3.90;;;3.70;;
9661;SDS011;24982;52.344;12.990;2023-04-24T00:37:15;4.55;;;4.15;;
9661;SDS011;24982;52.344;12.990;2023-04-24T00:40:18;4.53;;;4.00;;
9661;SDS011;24982;52.344;12.990;2023-04-24T00:43:20;4.15;;;3.85;;
9661;SDS011;24982;52.344;12.990;2023-04-24T00:46:23;4.28;;;3.97;;
9661;SDS011;24982;52.344;12.990;2023-04-24T00:49:26;4.03;;;3.70;;
9661;SDS011;24982;52.344;12.990;2023-04-24T00:52:28;4.32;;;4.05;;
9661;SDS011;24982;52.344;12.990;2023-04-24T00:55:32;4.05;;;3.75;;
9661;SDS011;24982;52.344;12.990;2023-04-24T00:58:34;4.75;;;4.35;;
9661;SDS011;24982;52.344;12.990;2023-04-24T01:01:36;4.40;;;4.10;;
9661;SDS011;24982;52.344;12.990;2023-04-24T01:04:39;4.45;;;4.15;;
9661;SDS011;24982;52.344;12.990;2023-04-24T01:07:43;4.22;;;4.00;;
9661;SDS011;24982;52.344;12.990;2023-04-24T01:10:48;4.90;;;4.40;;
9661;SDS011;24982;52.344;12.990;2023-04-24T01:13:52;4.60;;;4.30;;
9661;SDS011;24982;52.344;12.990;2023-04-24T01:16:54;4.70;;;4.32;;
9661;SDS011;24982;52.344;12.990;2023-04-24T01:19:59;4.10;;;3.80;;
9661;SDS011;24982;52.344;12.990;2023-04-24T01:23:06;4.50;;;4.20;;
9661;SDS011;24982;52.344;12.990;2023-04-24T01:26:09;4.72;;;4.35;;
9661;SDS011;24982;52.344;12.990;2023-04-24T01:29:11;4.53;;;4.20;;
9661;SDS011;24982;52.344;12.990;2023-04-24T01:32:17;4.30;;;4.00;;
9661;SDS011;24982;52.344;12.990;2023-04-24T01:35:19;4.72;;;4.43;;
9661;SDS011;24982;52.344;12.990;2023-04-24T01:38:23;4.30;;;4.00;;
9661;SDS011;24982;52.344;12.990;2023-04-24T01:41:26;5.00;;;4.50;;
9661;SDS011;24982;52.344;12.990;2023-04-24T01:44:29;4.60;;;4.20;;
9661;SDS011;24982;52.344;12.990;2023-04-24T01:47:32;4.22;;;3.92;;
9661;SDS011;24982;52.344;12.990;2023-04-24T01:50:34;4.35;;;4.05;;
9661;SDS011;24982;52.344;12.990;2023-04-24T01:53:39;4.93;;;4.25;;
9661;SDS011;24982;52.344;12.990;2023-04-24T01:56:41;4.82;;;4.43;;
9661;SDS011;24982;52.344;12.990;2023-04-24T01:59:44;4.50;;;4.10;;
9661;SDS011;24982;52.344;12.990;2023-04-24T02:02:46;4.65;;;4.35;;
9661;SDS011;24982;52.344;12.990;2023-04-24T02:05:48;4.82;;;4.32;;
9661;SDS011;24982;52.344;12.990;2023-04-24T02:08:52;4.57;;;4.28;;
9661;SDS011;24982;52.344;12.990;2023-04-24T02:11:53;7.63;;;4.40;;
9661;SDS011;24982;52.344;12.990;2023-04-24T02:14:58;4.53;;;4.10;;
9661;SDS011;24982;52.344;12.990;2023-04-24T02:18:00;4.80;;;4.40;;
9661;SDS011;24982;52.344;12.990;2023-04-24T02:21:02;4.68;;;4.38;;
9661;SDS011;24982;52.344;12.990;2023-04-24T02:24:05;5.07;;;4.68;;
9661;SDS011;24982;52.344;12.990;2023-04-24T02:27:08;5.13;;;4.82;;
9661;SDS011;24982;52.344;12.990;2023-04-24T02:30:10;5.20;;;4.80;;
9661;SDS011;24982;52.344;12.990;2023-04-24T02:33:12;6.10;;;5.30;;
9661;SDS011;24982;52.344;12.990;2023-04-24T02:36:14;4.88;;;4.57;;
9661;SDS011;24982;52.344;12.990;2023-04-24T02:39:18;5.57;;;5.18;;
9661;SDS011;24982;52.344;12.990;2023-04-24T02:42:20;4.75;;;4.45;;
9661;SDS011;24982;52.344;12.990;2023-04-24T02:45:22;5.38;;;4.78;;
9661;SDS011;24982;52.344;12.990;2023-04-24T02:48:24;5.22;;;4.72;;
9661;SDS011;24982;52.344;12.990;2023-04-24T02:51:26;5.03;;;4.63;;
9661;SDS011;24982;52.344;12.990;2023-04-24T02:54:29;5.15;;;4.75;;
9661;SDS011;24982;52.344;12.990;2023-04-24T02:57:31;5.95;;;4.93;;
9661;SDS011;24982;52.344;12.990;2023-04-24T03:00:33;5.30;;;4.80;;
9661;SDS011;24982;52.344;12.990;2023-04-24T03:03:35;5.03;;;4.63;;
9661;SDS011;24982;52.344;12.990;2023-04-24T03:06:37;5.38;;;5.00;;
9661;SDS011;24982;52.344;12.990;2023-04-24T03:09:41;5.30;;;4.90;;
9661;SDS011;24982;52.344;12.990;2023-04-24T03:12:43;5.30;;;4.90;;
9661;SDS011;24982;52.344;12.990;2023-04-24T03:15:45;5.32;;;4.93;;
9661;SDS011;24982;52.344;12.990;2023-04-24T03:18:47;4.95;;;4.65;;
9661;SDS011;24982;52.344;12.990;2023-04-24T03:21:49;5.25;;;4.80;;
9661;SDS011;24982;52.344;12.990;2023-04-24T03:24:53;4.85;;;4.55;;
9661;SDS011;24982;52.344;12.990;2023-04-24T03:27:56;5.90;;;4.68;;
9661;SDS011;24982;52.344;12.990;2023-04-24T03:31:13;4.82;;;4.50;;
9661;SDS011;24982;52.344;12.990;2023-04-24T03:34:16;5.03;;;4.53;;
9661;SDS011;24982;52.344;12.990;2023-04-24T03:37:19;4.93;;;4.53;;
9661;SDS011;24982;52.344;12.990;2023-04-24T03:40:31;4.38;;;4.10;;
9661;SDS011;24982;52.344;12.990;2023-04-24T03:43:35;7.47;;;4.72;;
9661;SDS011;24982;52.344;12.990;2023-04-24T03:46:38;5.05;;;4.60;;
9661;SDS011;24982;52.344;12.990;2023-04-24T03:49:40;5.00;;;4.60;;
9661;SDS011;24982;52.344;12.990;2023-04-24T03:52:43;5.35;;;4.95;;
9661;SDS011;24982;52.344;12.990;2023-04-24T03:56:04;4.80;;;4.50;;
9661;SDS011;24982;52.344;12.990;2023-04-24T03:59:07;5.10;;;4.60;;
9661;SDS011;24982;52.344;12.990;2023-04-24T04:02:10;4.60;;;4.20;;
9661;SDS011;24982;52.344;12.990;2023-04-24T04:05:12;5.15;;;4.30;;
9661;SDS011;24982;52.344;12.990;2023-04-24T04:08:15;5.25;;;4.70;;
9661;SDS011;24982;52.344;12.990;2023-04-24T04:11:18;5.18;;;4.68;;
9661;SDS011;24982;52.344;12.990;2023-04-24T04:14:20;5.05;;;4.53;;
9661;SDS011;24982;52.344;12.990;2023-04-24T04:17:22;4.60;;;4.30;;
9661;SDS011;24982;52.344;12.990;2023-04-24T04:20:25;4.97;;;4.50;;
9661;SDS011;24982;52.344;12.990;2023-04-24T04:23:27;4.22;;;3.92;;
9661;SDS011;24982;52.344;12.990;2023-04-24T04:26:57;5.03;;;4.53;;
9661;SDS011;24982;52.344;12.990;2023-04-24T04:30:03;4.65;;;4.25;;
9661;SDS011;24982;52.344;12.990;2023-04-24T04:33:15;4.70;;;4.40;;
9661;SDS011;24982;52.344;12.990;2023-04-24T04:36:17;5.10;;;4.07;;
9661;SDS011;24982;52.344;12.990;2023-04-24T04:39:24;4.80;;;4.40;;
9661;SDS011;24982;52.344;12.990;2023-04-24T04:42:42;4.80;;;4.25;;
9661;SDS011;24982;52.344;12.990;2023-04-24T04:45:46;4.25;;;3.95;;
9661;SDS011;24982;52.344;12.990;2023-04-24T04:48:57;4.82;;;4.20;;
9661;SDS011;24982;52.344;12.990;2023-04-24T04:51:59;4.00;;;3.80;;
9661;SDS011;24982;52.344;12.990;2023-04-24T04:55:02;3.97;;;3.67;;
9661;SDS011;24982;52.344;12.990;2023-04-24T04:58:26;4.18;;;3.88;;
9661;SDS011;24982;52.344;12.990;2023-04-24T05:01:32;3.33;;;3.13;;
9661;SDS011;24982;52.344;12.990;2023-04-24T05:04:34;3.50;;;3.30;;
9661;SDS011;24982;52.344;12.990;2023-04-24T05:07:36;3.00;;;2.90;;
9661;SDS011;24982;52.344;12.990;2023-04-24T05:10:38;3.40;;;3.20;;
9661;SDS011;24982;52.344;12.990;2023-04-24T05:13:42;2.95;;;2.75;;
9661;SDS011;24982;52.344;12.990;2023-04-24T05:16:54;3.05;;;2.72;;
9661;SDS011;24982;52.344;12.990;2023-04-24T05:19:59;2.60;;;2.40;;
9661;SDS011;24982;52.344;12.990;2023-04-24T05:23:02;2.15;;;2.05;;
9661;SDS011;24982;52.344;12.990;2023-04-24T05:26:04;2.17;;;2.08;;
9661;SDS011;24982;52.344;12.990;2023-04-24T05:29:08;2.10;;;2.00;;
9661;SDS011;24982;52.344;12.990;2023-04-24T05:32:10;2.50;;;2.40;;
9661;SDS011;24982;52.344;12.990;2023-04-24T05:35:12;3.50;;;2.30;;
9661;SDS011;24982;52.344;12.990;2023-04-24T05:38:14;1.88;;;1.88;;
9661;SDS011;24982;52.344;12.990;2023-04-24T05:41:18;2.00;;;1.90;;
9661;SDS011;24982;52.344;12.990;2023-04-24T05:44:22;2.10;;;2.00;;
9661;SDS011;24982;52.344;12.990;2023-04-24T05:47:24;1.77;;;1.77;;
9661;SDS011;24982;52.344;12.990;2023-04-24T05:50:28;1.85;;;1.75;;
9661;SDS011;24982;52.344;12.990;2023-04-24T05:53:30;1.40;;;1.40;;
9661;SDS011;24982;52.344;12.990;2023-04-24T05:56:32;2.00;;;1.48;;
9661;SDS011;24982;52.344;12.990;2023-04-24T05:59:38;2.47;;;1.40;;
9661;SDS011;24982;52.344;12.990;2023-04-24T06:02:40;1.15;;;1.10;;
9661;SDS011;24982;52.344;12.990;2023-04-24T06:05:45;1.40;;;1.30;;
9661;SDS011;24982;52.344;12.990;2023-04-24T06:08:48;1.40;;;1.30;;
9661;SDS011;24982;52.344;12.990;2023-04-24T06:11:50;1.65;;;1.10;;
9661;SDS011;24982;52.344;12.990;2023-04-24T06:14:57;1.27;;;1.27;;
9661;SDS011;24982;52.344;12.990;2023-04-24T06:18:14;3.10;;;1.10;;
9661;SDS011;24982;52.344;12.990;2023-04-24T06:21:16;4.07;;;1.38;;
9661;SDS011;24982;52.344;12.990;2023-04-24T06:24:18;1.20;;;1.10;;
9661;SDS011;24982;52.344;12.990;2023-04-24T06:27:20;1.20;;;1.10;;
9661;SDS011;24982;52.344;12.990;2023-04-24T06:30:24;1.10;;;1.10;;
9661;SDS011;24982;52.344;12.990;2023-04-24T06:33:27;0.98;;;0.98;;
9661;SDS011;24982;52.344;12.990;2023-04-24T06:36:29;3.40;;;1.02;;
9661;SDS011;24982;52.344;12.990;2023-04-24T06:39:32;3.30;;;1.20;;
9661;SDS011;24982;52.344;12.990;2023-04-24T06:42:35;3.10;;;1.20;;
9661;SDS011;24982;52.344;12.990;2023-04-24T06:45:39;1.08;;;0.90;;
9661;SDS011;24982;52.344;12.990;2023-04-24T06:48:41;1.48;;;1.33;;
9661;SDS011;24982;52.344;12.990;2023-04-24T06:51:43;0.90;;;0.90;;
9661;SDS011;24982;52.344;12.990;2023-04-24T06:54:45;1.10;;;1.00;;
9661;SDS011;24982;52.344;12.990;2023-04-24T06:57:47;1.65;;;1.00;;
9661;SDS011;24982;52.344;12.990;2023-04-24T07:00:50;1.20;;;1.10;;
9661;SDS011;24982;52.344;12.990;2023-04-24T07:03:52;1.67;;;1.00;;
9661;SDS011;24982;52.344;12.990;2023-04-24T07:06:55;1.55;;;1.00;;
9661;SDS011;24982;52.344;12.990;2023-04-24T07:09:58;0.93;;;0.90;;
9661;SDS011;24982;52.344;12.990;2023-04-24T07:13:00;0.82;;;0.82;;
9661;SDS011;24982;52.344;12.990;2023-04-24T07:16:03;2.45;;;1.00;;
9661;SDS011;24982;52.344;12.990;2023-04-24T07:19:06;1.02;;;1.00;;
9661;SDS011;24982;52.344;12.990;2023-04-24T07:22:08;1.48;;;1.00;;
9661;SDS011;24982;52.344;12.990;2023-04-24T07:25:16;2.78;;;1.00;;
9661;SDS011;24982;52.344;12.990;2023-04-24T07:28:18;1.25;;;1.10;;
9661;SDS011;24982;52.344;12.990;2023-04-24T07:31:22;1.85;;;0.82;;
9661;SDS011;24982;52.344;12.990;2023-04-24T07:34:24;1.10;;;0.95;;
9661;SDS011;24982;52.344;12.990;2023-04-24T07:37:26;0.95;;;0.90;;
9661;SDS011;24982;52.344;12.990;2023-04-24T07:40:29;3.72;;;0.95;;
9661;SDS011;24982;52.344;12.990;2023-04-24T07:43:31;2.22;;;0.93;;
9661;SDS011;24982;52.344;12.990;2023-04-24T07:46:34;1.00;;;0.77;;
9661;SDS011;24982;52.344;12.990;2023-04-24T07:49:36;2.30;;;1.05;;
9661;SDS011;24982;52.344;12.990;2023-04-24T07:52:38;1.23;;;1.00;;
9661;SDS011;24982;52.344;12.990;2023-04-24T07:55:40;1.20;;;0.90;;
9661;SDS011;24982;52.344;12.990;2023-04-24T07:58:42;2.40;;;0.90;;
9661;SDS011;24982;52.344;12.990;2023-04-24T08:01:45;1.20;;;1.00;;
9661;SDS011;24982;52.344;12.990;2023-04-24T08:04:47;0.80;;;0.80;;
9661;SDS011;24982;52.344;12.990;2023-04-24T08:07:49;1.15;;;1.05;;
9661;SDS011;24982;52.344;12.990;2023-04-24T08:10:51;0.90;;;0.90;;
9661;SDS011;24982;52.344;12.990;2023-04-24T08:13:53;1.00;;;1.00;;
9661;SDS011;24982;52.344;12.990;2023-04-24T08:16:57;3.22;;;1.10;;
9661;SDS011;24982;52.344;12.990;2023-04-24T08:20:00;1.00;;;1.00;;
9661;SDS011;24982;52.344;12.990;2023-04-24T08:23:02;1.08;;;0.90;;
9661;SDS011;24982;52.344;12.990;2023-04-24T08:26:04;1.20;;;1.10;;
9661;SDS011;24982;52.344;12.990;2023-04-24T08:29:07;1.02;;;1.00;;
9661;SDS011;24982;52.344;12.990;2023-04-24T08:32:10;2.33;;;1.17;;
9661;SDS011;24982;52.344;12.990;2023-04-24T08:35:12;0.95;;;0.95;;
9661;SDS011;24982;52.344;12.990;2023-04-24T08:38:14;1.55;;;0.90;;
9661;SDS011;24982;52.344;12.990;2023-04-24T08:41:16;1.17;;;0.90;;
9661;SDS011;24982;52.344;12.990;2023-04-24T08:44:20;1.00;;;0.80;;
9661;SDS011;24982;52.344;12.990;2023-04-24T08:47:23;1.55;;;1.20;;
9661;SDS011;24982;52.344;12.990;2023-04-24T08:50:26;1.00;;;0.90;;
9661;SDS011;24982;52.344;12.990;2023-04-24T08:53:30;1.27;;;0.93;;
9661;SDS011;24982;52.344;12.990;2023-04-24T08:56:34;0.85;;;0.85;;
9661;SDS011;24982;52.344;12.990;2023-04-24T08:59:39;1.17;;;1.00;;
9661;SDS011;24982;52.344;12.990;2023-04-24T09:02:43;1.42;;;0.85;;
9661;SDS011;24982;52.344;12.990;2023-04-24T09:05:47;1.10;;;1.08;;
9661;SDS011;24982;52.344;12.990;2023-04-24T09:08:50;1.30;;;0.95;;
9661;SDS011;24982;52.344;12.990;2023-04-24T09:11:56;1.70;;;1.02;;
9661;SDS011;24982;52.344;12.990;2023-04-24T09:14:58;1.52;;;1.00;;
9661;SDS011;24982;52.344;12.990;2023-04-24T09:18:03;0.95;;;0.80;;
9661;SDS011;24982;52.344;12.990;2023-04-24T09:21:07;1.50;;;1.10;;
9661;SDS011;24982;52.344;12.990;2023-04-24T09:24:14;1.38;;;0.82;;
9661;SDS011;24982;52.344;12.990;2023-04-24T09:27:17;2.40;;;0.75;;
9661;SDS011;24982;52.344;12.990;2023-04-24T09:30:21;1.10;;;1.00;;
9661;SDS011;24982;52.344;12.990;2023-04-24T09:33:25;0.90;;;0.90;;
9661;SDS011;24982;52.344;12.990;2023-04-24T09:36:27;2.42;;;0.90;;
9661;SDS011;24982;52.344;12.990;2023-04-24T09:39:32;1.25;;;1.00;;
9661;SDS011;24982;52.344;12.990;2023-04-24T09:42:34;2.10;;;0.95;;
9661;SDS011;24982;52.344;12.990;2023-04-24T09:45:36;0.90;;;0.70;;
9661;SDS011;24982;52.344;12.990;2023-04-24T09:48:40;0.75;;;0.75;;
9661;SDS011;24982;52.344;12.990;2023-04-24T09:51:43;1.35;;;0.80;;
9661;SDS011;24982;52.344;12.990;2023-04-24T09:54:45;0.90;;;0.90;;
9661;SDS011;24982;52.344;12.990;2023-04-24T09:57:55;1.98;;;0.95;;
9661;SDS011;24982;52.344;12.990;2023-04-24T10:00:58;1.23;;;0.80;;
9661;SDS011;24982;52.344;12.990;2023-04-24T10:04:01;0.88;;;0.88;;
9661;SDS011;24982;52.344;12.990;2023-04-24T10:07:03;0.85;;;0.80;;
9661;SDS011;24982;52.344;12.990;2023-04-24T10:10:07;0.80;;;0.80;;
9661;SDS011;24982;52.344;12.990;2023-04-24T10:13:09;2.83;;;2.50;;
9661;SDS011;24982;52.344;12.990;2023-04-24T10:16:12;1.88;;;1.48;;
9661;SDS011;24982;52.344;12.990;2023-04-24T10:19:16;1.95;;;1.30;;
9661;SDS011;24982;52.344;12.990;2023-04-24T10:22:20;0.90;;;0.82;;
9661;SDS011;24982;52.344;12.990;2023-04-24T10:25:24;0.85;;;0.85;;
9661;SDS011;24982;52.344;12.990;2023-04-24T10:28:27;1.95;;;1.00;;
9661;SDS011;24982;52.344;12.990;2023-04-24T10:31:31;1.60;;;0.90;;
9661;SDS011;24982;52.344;12.990;2023-04-24T10:34:35;0.93;;;0.90;;
9661;SDS011;24982;52.344;12.990;2023-04-24T10:37:37;2.08;;;1.33;;
9661;SDS011;24982;52.344;12.990;2023-04-24T10:40:42;1.63;;;0.95;;
9661;SDS011;24982;52.344;12.990;2023-04-24T10:43:44;0.90;;;0.90;;
9661;SDS011;24982;52.344;12.990;2023-04-24T10:46:46;1.42;;;1.05;;
9661;SDS011;24982;52.344;12.990;2023-04-24T10:49:55;1.60;;;1.50;;
9661;SDS011;24982;52.344;12.990;2023-04-24T10:53:07;1.55;;;1.42;;
9661;SDS011;24982;52.344;12.990;2023-04-24T10:56:15;1.73;;;1.50;;
9661;SDS011;24982;52.344;12.990;2023-04-24T10:59:24;1.30;;;1.20;;
9661;SDS011;24982;52.344;12.990;2023-04-24T11:02:35;0.90;;;0.90;;
9661;SDS011;24982;52.344;12.990;2023-04-24T11:09:03;0.80;;;0.80;;
9661;SDS011;24982;52.344;12.990;2023-04-24T11:12:07;1.75;;;0.70;;
9661;SDS011;24982;52.344;12.990;2023-04-24T11:15:11;0.98;;;0.90;;
9661;SDS011;24982;52.344;12.990;2023-04-24T11:18:13;0.80;;;0.75;;
9661;SDS011;24982;52.344;12.990;2023-04-24T11:21:18;0.80;;;0.80;;
9661;SDS011;24982;52.344;12.990;2023-04-24T11:24:24;1.05;;;0.80;;
9661;SDS011;24982;52.344;12.990;2023-04-24T11:27:31;2.15;;;0.90;;
9661;SDS011;24982;52.344;12.990;2023-04-24T11:30:39;0.80;;;0.80;;
9661;SDS011;24982;52.344;12.990;2023-04-24T11:33:41;1.55;;;1.00;;
9661;SDS011;24982;52.344;12.990;2023-04-24T11:36:44;0.80;;;0.80;;
9661;SDS011;24982;52.344;12.990;2023-04-24T11:39:49;0.80;;;0.80;;
9661;SDS011;24982;52.344;12.990;2023-04-24T11:42:53;0.98;;;0.82;;
9661;SDS011;24982;52.344;12.990;2023-04-24T11:45:56;1.65;;;0.70;;
9661;SDS011;24982;52.344;12.990;2023-04-24T11:49:01;0.82;;;0.82;;
9661;SDS011;24982;52.344;12.990;2023-04-24T11:52:04;1.55;;;0.90;;
9661;SDS011;24982;52.344;12.990;2023-04-24T11:55:07;0.80;;;0.80;;
9661;SDS011;24982;52.344;12.990;2023-04-24T11:58:23;0.90;;;0.90;;
9661;SDS011;24982;52.344;12.990;2023-04-24T12:01:27;1.00;;;0.95;;
9661;SDS011;24982;52.344;12.990;2023-04-24T12:04:37;0.70;;;0.70;;
9661;SDS011;24982;52.344;12.990;2023-04-24T12:07:42;1.13;;;0.82;;
9661;SDS011;24982;52.344;12.990;2023-04-24T12:10:44;0.70;;;0.70;;
9661;SDS011;24982;52.344;12.990;2023-04-24T12:13:52;3.30;;;0.80;;
9661;SDS011;24982;52.344;12.990;2023-04-24T12:16:54;0.95;;;0.80;;
9661;SDS011;24982;52.344;12.990;2023-04-24T12:19:57;0.80;;;0.80;;
9661;SDS011;24982;52.344;12.990;2023-04-24T12:23:02;0.85;;;0.73;;
9661;SDS011;24982;52.344;12.990;2023-04-24T12:26:04;1.92;;;0.65;;
9661;SDS011;24982;52.344;12.990;2023-04-24T12:29:06;0.88;;;0.80;;
9661;SDS011;24982;52.344;12.990;2023-04-24T12:32:15;2.00;;;0.90;;
9661;SDS011;24982;52.344;12.990;2023-04-24T12:35:19;0.90;;;0.90;;
9661;SDS011;24982;52.344;12.990;2023-04-24T12:38:23;0.77;;;0.77;;
9661;SDS011;24982;52.344;12.990;2023-04-24T12:41:27;1.27;;;1.00;;
9661;SDS011;24982;52.344;12.990;2023-04-24T12:44:32;2.15;;;0.80;;
9661;SDS011;24982;52.344;12.990;2023-04-24T12:47:36;0.95;;;0.85;;
9661;SDS011;24982;52.344;12.990;2023-04-24T12:50:39;0.63;;;0.63;;
9661;SDS011;24982;52.344;12.990;2023-04-24T12:53:42;1.25;;;0.70;;
9661;SDS011;24982;52.344;12.990;2023-04-24T12:56:45;0.70;;;0.70;;
9661;SDS011;24982;52.344;12.990;2023-04-24T12:59:46;0.80;;;0.80;;
9661;SDS011;24982;52.344;12.990;2023-04-24T13:02:48;0.75;;;0.75;;
9661;SDS011;24982;52.344;12.990;2023-04-24T13:05:51;0.80;;;0.80;;
9661;SDS011;24982;52.344;12.990;2023-04-24T13:08:54;1.20;;;0.77;;
9661;SDS011;24982;52.344;12.990;2023-04-24T13:11:58;0.93;;;0.93;;
9661;SDS011;24982;52.344;12.990;2023-04-24T13:15:01;1.10;;;1.00;;
9661;SDS011;24982;52.344;12.990;2023-04-24T13:18:03;0.80;;;0.80;;
9661;SDS011;24982;52.344;12.990;2023-04-24T13:21:05;0.65;;;0.65;;
9661;SDS011;24982;52.344;12.990;2023-04-24T13:24:09;0.80;;;0.80;;
9661;SDS011;24982;52.344;12.990;2023-04-24T13:27:11;0.80;;;0.80;;
9661;SDS011;24982;52.344;12.990;2023-04-24T13:30:13;0.75;;;0.75;;
9661;SDS011;24982;52.344;12.990;2023-04-24T13:33:15;1.67;;;0.80;;
9661;SDS011;24982;52.344;12.990;2023-04-24T13:36:17;2.35;;;1.20;;
9661;SDS011;24982;52.344;12.990;2023-04-24T13:39:20;0.80;;;0.80;;
9661;SDS011;24982;52.344;12.990;2023-04-24T13:42:22;0.90;;;0.90;;
9661;SDS011;24982;52.344;12.990;2023-04-24T13:45:24;1.50;;;0.93;;
9661;SDS011;24982;52.344;12.990;2023-04-24T13:48:26;1.17;;;1.17;;
9661;SDS011;24982;52.344;12.990;2023-04-24T13:51:28;0.98;;;0.98;;
9661;SDS011;24982;52.344;12.990;2023-04-24T13:54:32;0.85;;;0.85;;
9661;SDS011;24982;52.344;12.990;2023-04-24T13:57:34;1.13;;;0.90;;
9661;SDS011;24982;52.344;12.990;2023-04-24T14:00:37;1.20;;;1.20;;
9661;SDS011;24982;52.344;12.990;2023-04-24T14:03:38;1.08;;;0.98;;
9661;SDS011;24982;52.344;12.990;2023-04-24T14:06:40;0.90;;;0.90;;
9661;SDS011;24982;52.344;12.990;2023-04-24T14:09:44;0.80;;;0.80;;
9661;SDS011;24982;52.344;12.990;2023-04-24T14:12:46;1.08;;;0.90;;
9661;SDS011;24982;52.344;12.990;2023-04-24T14:15:48;0.88;;;0.88;;
9661;SDS011;24982;52.344;12.990;2023-04-24T14:18:50;0.98;;;0.98;;
9661;SDS011;24982;52.344;12.990;2023-04-24T14:21:52;2.13;;;1.10;;
9661;SDS011;24982;52.344;12.990;2023-04-24T14:24:57;1.10;;;0.98;;
9661;SDS011;24982;52.344;12.990;2023-04-24T14:27:59;1.33;;;1.25;;
9661;SDS011;24982;52.344;12.990;2023-04-24T14:31:01;3.58;;;1.00;;
9661;SDS011;24982;52.344;12.990;2023-04-24T14:34:03;1.17;;;1.17;;
9661;SDS011;24982;52.344;12.990;2023-04-24T14:37:05;2.60;;;1.10;;
9661;SDS011;24982;52.344;12.990;2023-04-24T14:40:09;0.93;;;0.93;;
9661;SDS011;24982;52.344;12.990;2023-04-24T14:43:11;5.80;;;1.20;;
9661;SDS011;24982;52.344;12.990;2023-04-24T14:46:13;1.40;;;1.30;;
9661;SDS011;24982;52.344;12.990;2023-04-24T14:49:15;2.17;;;1.05;;
9661;SDS011;24982;52.344;12.990;2023-04-24T14:52:17;1.20;;;1.20;;
9661;SDS011;24982;52.344;12.990;2023-04-24T14:55:21;1.02;;;1.02;;
9661;SDS011;24982;52.344;12.990;2023-04-24T14:58:23;2.03;;;1.10;;
9661;SDS011;24982;52.344;12.990;2023-04-24T15:01:25;1.38;;;1.25;;
9661;SDS011;24982;52.344;12.990;2023-04-24T15:04:27;1.10;;;1.10;;
9661;SDS011;24982;52.344;12.990;2023-04-24T15:07:31;1.38;;;1.30;;
9661;SDS011;24982;52.344;12.990;2023-04-24T15:10:34;1.42;;;1.33;;
9661;SDS011;24982;52.344;12.990;2023-04-24T15:13:36;1.35;;;1.27;;
9661;SDS011;24982;52.344;12.990;2023-04-24T15:16:38;1.75;;;1.00;;
9661;SDS011;24982;52.344;12.990;2023-04-24T15:19:41;1.20;;;1.10;;
9661;SDS011;24982;52.344;12.990;2023-04-24T15:22:43;3.55;;;1.60;;
9661;SDS011;24982;52.344;12.990;2023-04-24T15:25:46;0.85;;;0.85;;
9661;SDS011;24982;52.344;12.990;2023-04-24T15:28:48;1.92;;;1.60;;
9661;SDS011;24982;52.344;12.990;2023-04-24T15:31:51;2.08;;;1.60;;
9661;SDS011;24982;52.344;12.990;2023-04-24T15:34:53;3.47;;;1.80;;
9661;SDS011;24982;52.344;12.990;2023-04-24T15:37:55;2.00;;;1.27;;
9661;SDS011;24982;52.344;12.990;2023-04-24T15:40:58;1.27;;;1.17;;
9661;SDS011;24982;52.344;12.990;2023-04-24T15:44:00;4.18;;;1.70;;
9661;SDS011;24982;52.344;12.990;2023-04-24T15:47:03;1.40;;;1.00;;
9661;SDS011;24982;52.344;12.990;2023-04-24T15:50:05;2.35;;;1.23;;
9661;SDS011;24982;52.344;12.990;2023-04-24T15:53:09;1.65;;;0.98;;
9661;SDS011;24982;52.344;12.990;2023-04-24T15:56:13;1.13;;;1.13;;
9661;SDS011;24982;52.344;12.990;2023-04-24T15:59:15;1.15;;;1.10;;
9661;SDS011;24982;52.344;12.990;2023-04-24T16:02:18;1.20;;;1.20;;
9661;SDS011;24982;52.344;12.990;2023-04-24T16:05:20;1.50;;;1.40;;
9661;SDS011;24982;52.344;12.990;2023-04-24T16:08:23;1.10;;;1.10;;
9661;SDS011;24982;52.344;12.990;2023-04-24T16:11:26;1.00;;;1.00;;
9661;SDS011;24982;52.344;12.990;2023-04-24T16:14:28;1.42;;;1.10;;
9661;SDS011;24982;52.344;12.990;2023-04-24T16:17:30;1.10;;;1.10;;
9661;SDS011;24982;52.344;12.990;2023-04-24T16:20:32;0.90;;;0.90;;
9661;SDS011;24982;52.344;12.990;2023-04-24T16:23:34;1.02;;;1.00;;
9661;SDS011;24982;52.344;12.990;2023-04-24T16:26:37;0.90;;;0.90;;
9661;SDS011;24982;52.344;12.990;2023-04-24T16:29:39;1.20;;;1.20;;
9661;SDS011;24982;52.344;12.990;2023-04-24T16:32:41;1.20;;;1.10;;
9661;SDS011;24982;52.344;12.990;2023-04-24T16:35:43;2.50;;;1.20;;
9661;SDS011;24982;52.344;12.990;2023-04-24T16:38:45;1.35;;;1.35;;
9661;SDS011;24982;52.344;12.990;2023-04-24T16:41:49;1.42;;;1.27;;
9661;SDS011;24982;52.344;12.990;2023-04-24T16:44:53;1.00;;;1.00;;
9661;SDS011;24982;52.344;12.990;2023-04-24T16:47:55;1.20;;;1.10;;
9661;SDS011;24982;52.344;12.990;2023-04-24T16:50:57;1.15;;;1.15;;
9661;SDS011;24982;52.344;12.990;2023-04-24T16:53:59;1.13;;;1.08;;
9661;SDS011;24982;52.344;12.990;2023-04-24T16:57:03;0.85;;;0.85;;
9661;SDS011;24982;52.344;12.990;2023-04-24T17:00:07;0.90;;;0.90;;
9661;SDS011;24982;52.344;12.990;2023-04-24T17:03:10;3.03;;;1.10;;
9661;SDS011;24982;52.344;12.990;2023-04-24T17:06:12;1.65;;;1.00;;
9661;SDS011;24982;52.344;12.990;2023-04-24T17:09:14;0.80;;;0.80;;
9661;SDS011;24982;52.344;12.990;2023-04-24T17:12:17;1.88;;;0.70;;
9661;SDS011;24982;52.344;12.990;2023-04-24T17:15:19;0.60;;;0.60;;
9661;SDS011;24982;52.344;12.990;2023-04-24T17:18:21;0.70;;;0.70;;
9661;SDS011;24982;52.344;12.990;2023-04-24T17:21:24;2.60;;;0.80;;
9661;SDS011;24982;52.344;12.990;2023-04-24T17:24:27;0.70;;;0.70;;
9661;SDS011;24982;52.344;12.990;2023-04-24T17:27:30;0.80;;;0.80;;
9661;SDS011;24982;52.344;12.990;2023-04-24T17:30:32;1.45;;;0.70;;
9661;SDS011;24982;52.344;12.990;2023-04-24T17:33:34;0.90;;;0.90;;
9661;SDS011;24982;52.344;12.990;2023-04-24T17:36:36;1.02;;;0.88;;
9661;SDS011;24982;52.344;12.990;2023-04-24T17:39:38;1.10;;;1.10;;
9661;SDS011;24982;52.344;12.990;2023-04-24T17:42:41;1.23;;;1.05;;
9661;SDS011;24982;52.344;12.990;2023-04-24T17:45:43;0.90;;;0.90;;
9661;SDS011;24982;52.344;12.990;2023-04-24T17:48:46;1.85;;;1.00;;
9661;SDS011;24982;52.344;12.990;2023-04-24T17:51:48;0.70;;;0.70;;
9661;SDS011;24982;52.344;12.990;2023-04-24T17:54:50;0.70;;;0.70;;
9661;SDS011;24982;52.344;12.990;2023-04-24T17:57:53;2.05;;;0.60;;
9661;SDS011;24982;52.344;12.990;2023-04-24T18:00:55;0.55;;;0.55;;
9661;SDS011;24982;52.344;12.990;2023-04-24T18:03:57;1.10;;;0.60;;
9661;SDS011;24982;52.344;12.990;2023-04-24T18:06:59;1.65;;;0.50;;
9661;SDS011;24982;52.344;12.990;2023-04-24T18:10:01;0.32;;;0.32;;
9661;SDS011;24982;52.344;12.990;2023-04-24T18:13:05;1.25;;;0.60;;
9661;SDS011;24982;52.344;12.990;2023-04-24T18:16:07;0.40;;;0.35;;
9661;SDS011;24982;52.344;12.990;2023-04-24T18:19:09;0.52;;;0.50;;
9661;SDS011;24982;52.344;12.990;2023-04-24T18:22:11;0.63;;;0.63;;
9661;SDS011;24982;52.344;12.990;2023-04-24T18:25:13;0.55;;;0.38;;
9661;SDS011;24982;52.344;12.990;2023-04-24T18:28:18;0.60;;;0.60;;